Buckhorn, New Mexico
Current Conditions -  °F | °C
As of 11:55 PM on Monday 20 Oct 2014 (Local Time) from KSVC Reporting Station
Light Rain Light Rain  
Wind Chill: 54°   Ceiling: 4700
Heat Index: 54°   Visibility: 9mi
Dew Point: 52°   Wind: 7mph
Humidity: 94%   Direction: 20°NNE
Pressure: 30.15"   Gusts: NA
Location:  33.03°N, 108.71°W
Report Text: KSVC 210555Z AUTO 02006KT 9SM -RA FEW025 FEW037 BKN047 12/11 A3015 RMK AO2 P0004
Loading
Personal Weather Stations






























Interactive Weather Map New forecast layout! Learn more

10-Day Weather Forecast

Advertisements
Track Severe Weather on mobile